createdAt,value
2019-05-10T00:01:50.680Z,11.10
2019-05-10T00:04:36.866Z,10.27
2019-05-10T00:07:22.883Z,10.37
2019-05-10T00:09:50.763Z,10.87
2019-05-10T00:12:32.590Z,10.13
2019-05-10T00:15:01.244Z,10.63
2019-05-10T00:17:29.794Z,10.77
2019-05-10T00:19:58.348Z,10.73
2019-05-10T00:22:26.962Z,9.87
2019-05-10T00:25:04.014Z,10.97
2019-05-10T00:27:25.780Z,10.67
2019-05-10T00:29:54.490Z,11.40
2019-05-10T00:32:23.046Z,10.70
2019-05-10T00:34:51.611Z,10.57
2019-05-10T00:37:20.167Z,11.00
2019-05-10T00:39:48.714Z,11.07
2019-05-10T00:42:17.291Z,10.33
2019-05-10T00:44:45.842Z,11.17
2019-05-10T00:47:14.403Z,11.33
2019-05-10T00:49:42.977Z,10.97
2019-05-10T00:52:11.654Z,11.10
2019-05-10T00:54:40.194Z,10.93
2019-05-10T00:57:08.759Z,11.70
2019-05-10T00:59:37.318Z,11.33
2019-05-10T01:02:05.874Z,11.10
2019-05-10T01:04:34.439Z,11.53
2019-05-10T01:07:02.998Z,11.70
2019-05-10T01:09:31.757Z,11.63
2019-05-10T01:12:00.322Z,11.80
2019-05-10T01:14:28.879Z,12.70
2019-05-10T01:16:57.437Z,12.77
2019-05-10T01:19:26.378Z,13.00
2019-05-10T01:21:54.942Z,12.50
2019-05-10T01:24:23.503Z,11.77
2019-05-10T01:26:52.099Z,12.47
2019-05-10T01:29:20.648Z,12.57
2019-05-10T01:31:49.262Z,13.13
2019-05-10T01:34:17.860Z,13.53
2019-05-10T01:36:46.406Z,13.30
2019-05-10T01:39:14.960Z,13.43
2019-05-10T01:41:43.538Z,13.43
2019-05-10T01:44:12.169Z,13.60
2019-05-10T01:46:40.726Z,13.77
2019-05-10T01:49:09.305Z,13.87
2019-05-10T01:51:37.858Z,13.93
2019-05-10T01:54:06.414Z,13.93
2019-05-10T01:56:34.989Z,13.90
2019-05-10T01:59:03.544Z,13.93
2019-05-10T02:01:32.123Z,13.67
2019-05-10T02:04:00.683Z,14.17
2019-05-10T02:06:29.261Z,14.00
2019-05-10T02:08:57.798Z,13.40
2019-05-10T02:11:26.367Z,14.80
2019-05-10T02:13:54.932Z,14.20
2019-05-10T02:16:23.482Z,14.77
2019-05-10T02:18:52.091Z,14.33
2019-05-10T02:21:20.650Z,15.47
2019-05-10T02:23:49.203Z,14.73
2019-05-10T02:26:17.768Z,14.80
2019-05-10T02:28:46.321Z,14.67
2019-05-10T02:31:14.889Z,15.10
2019-05-10T02:33:43.460Z,14.17
2019-05-10T02:36:12.088Z,15.00
2019-05-10T02:38:40.646Z,14.43
2019-05-10T02:41:09.252Z,15.20
2019-05-10T02:43:37.872Z,14.40
2019-05-10T02:46:06.454Z,14.57
2019-05-10T02:48:35.128Z,14.53
2019-05-10T02:51:03.756Z,15.17
2019-05-10T02:53:33.680Z,15.17
2019-05-10T02:56:03.998Z,14.60
2019-05-10T02:58:33.690Z,14.83
2019-05-10T03:01:04.146Z,15.40
2019-05-10T03:03:33.284Z,14.87
2019-05-10T03:06:04.139Z,14.67
2019-05-10T03:08:41.720Z,14.87
2019-05-10T03:11:13.489Z,15.03
2019-05-10T03:13:45.139Z,14.70
2019-05-10T03:16:16.766Z,15.77
2019-05-10T03:18:47.978Z,14.80
2019-05-10T03:21:18.322Z,15.13
2019-05-10T03:23:50.557Z,15.37
2019-05-10T03:26:19.929Z,15.23
2019-05-10T03:28:48.522Z,15.80
2019-05-10T03:31:17.148Z,15.83
2019-05-10T03:33:53.818Z,15.33
2019-05-10T03:36:16.121Z,15.40
2019-05-10T03:38:44.751Z,15.13
2019-05-10T03:41:13.349Z,15.47
2019-05-10T03:43:41.910Z,15.10
2019-05-10T03:46:10.461Z,15.10
2019-05-10T03:48:39.266Z,14.90
2019-05-10T03:51:07.819Z,15.10
2019-05-10T03:53:36.373Z,15.87
2019-05-10T03:56:05.008Z,16.13
2019-05-10T03:58:33.571Z,15.00
2019-05-10T04:01:02.126Z,16.33
2019-05-10T04:03:30.699Z,19.63
2019-05-10T04:05:59.334Z,21.87
2019-05-10T04:08:27.882Z,19.50
2019-05-10T04:10:56.453Z,20.43
2019-05-10T04:13:25.007Z,20.20
2019-05-10T04:15:55.432Z,26.87
2019-05-10T04:18:24.017Z,20.23
2019-05-10T04:20:52.574Z,17.47
2019-05-10T04:23:21.120Z,16.07
2019-05-10T04:25:50.070Z,15.67
2019-05-10T04:28:18.629Z,15.70
2019-05-10T04:30:47.950Z,15.07
2019-05-10T04:33:16.528Z,14.53
2019-05-10T04:35:45.084Z,14.90
2019-05-10T04:38:13.642Z,17.00
2019-05-10T04:40:42.211Z,15.60
2019-05-10T04:43:10.762Z,15.07
2019-05-10T04:45:39.321Z,15.63
2019-05-10T04:48:07.879Z,15.60
2019-05-10T04:50:36.443Z,15.00
2019-05-10T04:53:04.998Z,15.30
2019-05-10T04:55:35.606Z,15.73
2019-05-10T04:58:04.198Z,16.03
2019-05-10T05:00:32.837Z,15.20
2019-05-10T05:03:01.419Z,14.97
2019-05-10T05:05:30.237Z,15.37
2019-05-10T05:07:58.791Z,13.83
2019-05-10T05:10:27.685Z,14.77
2019-05-10T05:12:56.248Z,13.50
2019-05-10T05:15:24.828Z,13.00
2019-05-10T05:17:53.394Z,13.13
2019-05-10T05:20:21.950Z,12.93
2019-05-10T05:22:50.527Z,12.87
2019-05-10T05:25:22.005Z,12.47
2019-05-10T05:28:05.324Z,12.33
2019-05-10T05:30:22.399Z,11.77
2019-05-10T05:32:52.084Z,10.67
2019-05-10T05:35:20.659Z,12.20
2019-05-10T05:37:49.212Z,11.23
2019-05-10T05:40:28.916Z,11.43
2019-05-10T05:42:57.430Z,11.23
2019-05-10T05:45:28.202Z,11.47
2019-05-10T05:47:56.377Z,11.53
2019-05-10T05:50:24.940Z,10.37
2019-05-10T05:52:53.566Z,10.83
2019-05-10T05:55:23.087Z,10.13
2019-05-10T05:57:51.891Z,10.27
2019-05-10T06:00:20.627Z,9.93
2019-05-10T06:02:49.234Z,10.10
2019-05-10T06:05:32.209Z,10.17
2019-05-10T06:07:51.954Z,9.83
2019-05-10T06:10:19.801Z,10.30
2019-05-10T06:12:50.579Z,10.47
2019-05-10T06:15:23.205Z,9.90
2019-05-10T06:17:56.759Z,9.90
2019-05-10T06:20:19.465Z,10.03
2019-05-10T06:23:04.889Z,10.20
2019-05-10T06:25:18.331Z,9.90
2019-05-10T06:27:46.882Z,9.37
2019-05-10T06:30:15.710Z,9.20
2019-05-10T06:32:44.243Z,8.80
2019-05-10T06:35:14.182Z,8.93
2019-05-10T06:37:43.499Z,8.97
2019-05-10T06:40:12.800Z,9.07
2019-05-10T06:42:41.342Z,9.23
2019-05-10T06:45:14.637Z,9.87
2019-05-10T06:47:41.978Z,8.80
2019-05-10T06:50:11.826Z,7.87
2019-05-10T06:52:40.401Z,9.00
2019-05-10T06:55:09.490Z,8.67
2019-05-10T06:57:38.092Z,7.80
2019-05-10T07:00:08.354Z,8.07
2019-05-10T07:02:36.982Z,7.60
2019-05-10T07:05:06.082Z,7.90
2019-05-10T07:07:44.120Z,7.87
2019-05-10T07:10:15.712Z,7.47
2019-05-10T07:12:38.438Z,7.63
2019-05-10T07:15:08.902Z,7.37
2019-05-10T07:17:45.647Z,7.50
2019-05-10T07:20:09.127Z,6.73
2019-05-10T07:22:37.800Z,7.03
2019-05-10T07:25:07.708Z,7.20
2019-05-10T07:27:38.348Z,6.77
2019-05-10T07:30:07.598Z,6.83
2019-05-10T07:32:36.268Z,6.73
2019-05-10T07:35:06.480Z,6.80
2019-05-10T07:37:35.483Z,7.50
2019-05-10T07:40:07.020Z,7.50
2019-05-10T07:42:39.660Z,7.50
2019-05-10T07:45:07.325Z,6.80
2019-05-10T07:47:35.881Z,7.53
2019-05-10T07:50:09.848Z,6.60
2019-05-10T07:52:43.540Z,6.27
2019-05-10T07:55:10.353Z,6.57
2019-05-10T07:57:37.960Z,6.33
2019-05-10T08:00:07.726Z,6.63
2019-05-10T08:02:36.351Z,6.40
2019-05-10T08:05:10.902Z,6.43
2019-05-10T08:07:38.956Z,6.23
2019-05-10T08:10:09.072Z,6.27
2019-05-10T08:12:41.394Z,6.10
2019-05-10T08:15:09.391Z,6.33
2019-05-10T08:17:43.283Z,6.93
2019-05-10T08:20:22.551Z,6.43
2019-05-10T08:22:44.508Z,6.27
2019-05-10T08:25:09.818Z,6.10
2019-05-10T08:27:44.127Z,5.70
2019-05-10T08:30:22.672Z,6.00
2019-05-10T08:32:39.749Z,6.00
2019-05-10T08:35:16.457Z,5.80
2019-05-10T08:37:38.571Z,5.90
2019-05-10T08:40:07.274Z,5.67
2019-05-10T08:42:45.219Z,4.93
2019-05-10T08:45:08.860Z,5.43
2019-05-10T08:47:37.736Z,5.63
2019-05-10T08:50:22.599Z,5.50
2019-05-10T08:52:36.767Z,5.60
2019-05-10T08:55:08.072Z,5.40
2019-05-10T08:57:43.425Z,5.63
2019-05-10T09:00:12.742Z,5.20
2019-05-10T09:02:42.603Z,5.77
2019-05-10T09:05:12.464Z,5.20
2019-05-10T09:07:42.890Z,5.77
2019-05-10T09:10:12.802Z,5.80
2019-05-10T09:12:50.564Z,5.77
2019-05-10T09:15:13.441Z,6.03
2019-05-10T09:17:42.778Z,5.53
2019-05-10T09:20:20.621Z,5.50
2019-05-10T09:22:43.614Z,7.63
2019-05-10T09:25:13.097Z,9.50
2019-05-10T09:27:43.207Z,10.63
2019-05-10T09:30:14.234Z,11.10
2019-05-10T09:32:43.668Z,11.70
2019-05-10T09:35:12.931Z,13.67
2019-05-10T09:37:42.166Z,13.70
2019-05-10T09:40:13.304Z,16.20
2019-05-10T09:42:43.686Z,15.37
2019-05-10T09:45:13.492Z,16.27
2019-05-10T09:47:43.495Z,14.50
2019-05-10T09:50:13.153Z,16.10
2019-05-10T09:52:41.713Z,14.43
2019-05-10T09:55:14.825Z,14.43
2019-05-10T09:57:40.636Z,13.83
2019-05-10T10:00:11.035Z,14.07
2019-05-10T10:02:40.884Z,14.03
2019-05-10T10:05:10.339Z,13.93
2019-05-10T10:07:39.015Z,13.20
2019-05-10T10:10:12.719Z,13.80
2019-05-10T10:12:38.232Z,13.43
2019-05-10T10:15:09.195Z,14.13
2019-05-10T10:17:41.774Z,13.00
2019-05-10T10:20:08.542Z,12.73
2019-05-10T10:22:38.103Z,12.93
2019-05-10T10:25:07.577Z,13.27
2019-05-10T10:27:39.349Z,14.87
2019-05-10T10:30:12.819Z,13.97
2019-05-10T10:32:38.526Z,13.47
2019-05-10T10:35:07.969Z,13.97
2019-05-10T10:37:37.878Z,13.27
2019-05-10T10:40:09.060Z,13.47
2019-05-10T10:42:38.317Z,13.37
2019-05-10T10:45:08.407Z,12.70
2019-05-10T10:47:38.070Z,13.53
2019-05-10T10:50:13.246Z,12.63
2019-05-10T10:52:39.034Z,12.57
2019-05-10T10:55:11.077Z,11.63
2019-05-10T10:57:38.546Z,11.67
2019-05-10T11:00:09.584Z,11.63
2019-05-10T11:02:41.337Z,11.33
2019-05-10T11:05:09.484Z,12.00
2019-05-10T11:07:44.026Z,10.90
2019-05-10T11:10:17.905Z,11.80
2019-05-10T11:12:41.231Z,12.20
2019-05-10T11:15:11.436Z,10.73
2019-05-10T11:17:40.882Z,10.40
2019-05-10T11:20:11.502Z,11.30
2019-05-10T11:22:41.826Z,9.73
2019-05-10T11:25:12.828Z,10.53
2019-05-10T11:27:41.855Z,10.07
2019-05-10T11:30:12.311Z,9.73
2019-05-10T11:32:41.869Z,10.07
2019-05-10T11:35:12.064Z,11.13
2019-05-10T11:37:45.405Z,10.40
2019-05-10T11:40:17.439Z,10.60
2019-05-10T11:42:47.281Z,10.80
2019-05-10T11:45:13.553Z,10.67
2019-05-10T11:47:42.141Z,10.80
2019-05-10T11:50:27.830Z,10.83
2019-05-10T11:52:43.111Z,10.77
2019-05-10T11:55:12.018Z,10.67
2019-05-10T11:57:44.209Z,10.30
2019-05-10T12:00:24.681Z,10.00
2019-05-10T12:03:01.191Z,9.33
2019-05-10T12:05:20.095Z,9.30
2019-05-10T12:13:11.364Z,10.13
2019-05-10T12:15:31.833Z,10.27
2019-05-10T12:18:04.915Z,10.53
2019-05-10T12:20:41.337Z,10.53
2019-05-10T12:26:19.490Z,8.87
2019-05-10T12:26:20.398Z,11.83
2019-05-10T12:28:24.565Z,12.77
2019-05-10T12:30:51.073Z,14.20
2019-05-10T12:33:24.862Z,16.70
2019-05-10T12:35:50.997Z,16.40
2019-05-10T12:38:23.542Z,16.93
2019-05-10T12:40:51.339Z,17.10
2019-05-10T12:43:21.078Z,15.40
2019-05-10T12:45:51.795Z,18.03
2019-05-10T12:48:23.167Z,17.73
2019-05-10T12:50:52.225Z,16.80
2019-05-10T12:53:21.475Z,15.50
2019-05-10T12:55:50.242Z,15.37
2019-05-10T12:58:19.001Z,15.00
2019-05-10T13:00:52.401Z,15.03
2019-05-10T13:04:39.425Z,14.10
2019-05-10T13:06:09.535Z,14.20
2019-05-10T13:08:38.815Z,14.70
2019-05-10T13:11:07.318Z,14.47
2019-05-10T13:13:35.979Z,15.73
2019-05-10T13:16:10.026Z,16.37
2019-05-10T13:18:49.823Z,16.37
2019-05-10T13:21:07.701Z,16.33
2019-05-10T13:23:35.895Z,17.23
2019-05-10T13:26:04.631Z,17.13
2019-05-10T13:28:33.203Z,17.70
2019-05-10T13:31:05.718Z,17.63
2019-05-10T13:33:40.748Z,15.97
2019-05-10T13:36:02.270Z,16.23
2019-05-10T13:38:30.946Z,15.90
2019-05-10T13:40:59.531Z,14.13
2019-05-10T13:43:28.411Z,12.53
2019-05-10T13:45:57.156Z,10.03
2019-05-10T13:48:26.570Z,10.43
2019-05-10T13:50:55.776Z,9.13
2019-05-10T13:53:26.051Z,8.83
2019-05-10T13:55:54.674Z,10.23
2019-05-10T13:58:23.333Z,11.03
2019-05-10T14:00:52.060Z,11.47
2019-05-10T14:03:20.697Z,11.67
2019-05-10T14:05:49.273Z,11.33
2019-05-10T14:08:17.958Z,13.10
2019-05-10T14:10:49.451Z,12.43
2019-05-10T14:13:17.163Z,11.30
2019-05-10T14:15:46.102Z,9.33
2019-05-10T14:18:14.963Z,8.10
2019-05-10T14:20:45.219Z,8.80
2019-05-10T14:23:17.410Z,8.93
2019-05-10T14:25:44.121Z,9.07
2019-05-10T14:28:15.745Z,10.07
2019-05-10T14:30:46.864Z,10.00
2019-05-10T14:33:14.920Z,9.97
2019-05-10T14:35:43.606Z,10.13
2019-05-10T14:38:12.246Z,9.57
2019-05-10T14:40:40.945Z,9.13
2019-05-10T14:43:09.576Z,8.70
2019-05-10T14:45:38.215Z,8.13
2019-05-10T14:48:06.893Z,7.63
2019-05-10T14:50:35.527Z,7.40
2019-05-10T14:53:04.145Z,7.43
2019-05-10T14:55:34.482Z,6.77
2019-05-10T14:58:03.064Z,7.27
2019-05-10T15:00:31.695Z,6.97
2019-05-10T15:03:02.262Z,7.07
2019-05-10T15:05:30.494Z,6.90
2019-05-10T15:07:59.059Z,6.70
2019-05-10T15:10:33.056Z,7.27
2019-05-10T15:12:58.348Z,7.23
2019-05-10T15:15:30.918Z,7.47
2019-05-10T15:18:02.130Z,7.00
2019-05-10T15:20:28.261Z,7.60
2019-05-10T15:22:56.832Z,8.20
2019-05-10T15:25:25.522Z,7.40
2019-05-10T15:27:54.809Z,7.17
2019-05-10T15:30:25.319Z,7.20
2019-05-10T15:32:53.889Z,7.27
2019-05-10T15:35:22.528Z,6.00
2019-05-10T15:37:51.091Z,5.33
2019-05-10T15:40:19.995Z,4.83
2019-05-10T15:42:48.544Z,4.53
2019-05-10T15:45:19.516Z,4.33
2019-05-10T15:47:51.629Z,4.17
2019-05-10T15:50:18.747Z,3.93
2019-05-10T15:52:48.802Z,3.90
2019-05-10T15:55:26.847Z,3.93
2019-05-10T15:57:51.841Z,3.43
2019-05-10T16:00:18.627Z,3.20
2019-05-10T16:02:47.195Z,2.80
2019-05-10T16:05:25.634Z,2.70
2019-05-10T16:07:51.062Z,2.60
2019-05-10T16:10:16.602Z,2.73
2019-05-10T16:12:45.181Z,2.40
2019-05-10T16:15:19.965Z,2.30
2019-05-10T16:17:44.577Z,2.47
2019-05-10T16:20:13.614Z,2.10
2019-05-10T16:22:42.396Z,2.20
2019-05-10T16:25:11.543Z,2.33
2019-05-10T16:27:44.689Z,2.30
2019-05-10T16:30:17.823Z,2.40
2019-05-10T16:32:45.704Z,2.60
2019-05-10T16:35:14.834Z,2.40
2019-05-10T16:37:43.808Z,2.10
2019-05-10T16:40:13.110Z,2.53
2019-05-10T16:42:44.512Z,2.57
2019-05-10T16:45:13.221Z,2.43
2019-05-10T16:47:43.087Z,2.60
2019-05-10T16:50:11.707Z,2.50
2019-05-10T16:52:40.301Z,2.40
2019-05-10T16:55:09.809Z,2.50
2019-05-10T16:57:39.502Z,2.50
2019-05-10T17:00:11.637Z,2.50
2019-05-10T17:02:42.063Z,2.20
2019-05-10T17:05:15.181Z,2.03
2019-05-10T17:07:40.895Z,2.37
2019-05-10T17:10:10.083Z,2.00
2019-05-10T17:12:38.647Z,2.40
2019-05-10T17:15:08.392Z,2.07
2019-05-10T17:17:39.046Z,2.33
2019-05-10T17:20:13.899Z,1.93
2019-05-10T17:22:38.904Z,1.90
2019-05-10T17:25:28.402Z,1.80
2019-05-10T17:27:58.244Z,2.27
2019-05-10T17:30:28.272Z,2.20
2019-05-10T17:33:03.208Z,2.57
2019-05-10T17:35:27.704Z,2.60
2019-05-10T17:37:56.507Z,2.33
2019-05-10T17:40:25.203Z,2.00
2019-05-10T17:42:53.814Z,2.30
2019-05-10T17:45:22.675Z,2.60
2019-05-10T17:47:51.215Z,2.20
2019-05-10T17:50:19.858Z,2.00
2019-05-10T17:52:48.421Z,2.17
2019-05-10T17:55:18.460Z,2.20
2019-05-10T17:57:48.603Z,2.67
2019-05-10T18:00:18.399Z,2.40
2019-05-10T18:02:46.934Z,2.40
2019-05-10T18:05:35.023Z,2.27
2019-05-10T18:08:03.637Z,2.23
2019-05-10T18:10:32.267Z,2.53
2019-05-10T18:13:03.554Z,2.33
2019-05-10T18:15:32.858Z,2.20
2019-05-10T18:18:02.739Z,1.90
2019-05-10T18:20:41.008Z,2.00
2019-05-10T18:23:02.105Z,1.87
2019-05-10T18:25:30.682Z,2.33
2019-05-10T18:27:59.231Z,2.20
2019-05-10T18:30:27.997Z,2.30
2019-05-10T18:32:56.645Z,2.70
2019-05-10T18:35:25.198Z,2.00
2019-05-10T18:37:59.289Z,2.50
2019-05-10T18:40:25.243Z,2.50
2019-05-10T18:42:57.855Z,2.20
2019-05-10T18:45:28.616Z,2.13
2019-05-10T18:47:54.885Z,2.30
2019-05-10T18:50:23.427Z,2.20
2019-05-10T18:52:52.647Z,2.17
2019-05-10T18:55:21.177Z,2.03
2019-05-10T18:57:50.435Z,2.07
2019-05-10T19:00:22.944Z,2.17
2019-05-10T19:02:55.309Z,2.53
2019-05-10T19:05:25.199Z,2.47
2019-05-10T19:08:03.151Z,2.30
2019-05-10T19:10:22.467Z,2.37
2019-05-10T19:12:59.792Z,2.30
2019-05-10T19:15:21.244Z,1.87
2019-05-10T19:17:49.839Z,2.17
2019-05-10T19:20:18.652Z,2.23
2019-05-10T19:22:47.527Z,2.10
2019-05-10T19:25:16.162Z,2.27
2019-05-10T19:27:50.056Z,1.90
2019-05-10T19:30:20.105Z,2.70
2019-05-10T19:32:51.272Z,2.30
2019-05-10T19:35:16.615Z,2.40
2019-05-10T19:37:45.287Z,2.80
2019-05-10T19:40:14.285Z,2.77
2019-05-10T19:42:44.817Z,2.50
2019-05-10T19:45:19.357Z,2.90
2019-05-10T19:47:43.935Z,2.40
2019-05-10T19:50:13.185Z,2.70
2019-05-10T19:52:41.795Z,2.70
2019-05-10T19:55:13.163Z,2.90
2019-05-10T19:57:40.737Z,3.03
2019-05-10T20:00:11.485Z,2.73
2019-05-10T20:02:40.035Z,2.80
2019-05-10T20:05:09.231Z,3.17
2019-05-10T20:07:45.829Z,2.50
2019-05-10T20:10:08.852Z,3.03
2019-05-10T20:12:37.497Z,2.80
2019-05-10T20:15:08.046Z,2.43
2019-05-10T20:17:36.737Z,2.60
2019-05-10T20:20:08.759Z,2.60
2019-05-10T20:22:37.544Z,2.70
2019-05-10T20:25:07.245Z,2.90
2019-05-10T20:27:36.161Z,2.90
2019-05-10T20:32:19.634Z,2.80
2019-05-10T20:34:48.236Z,2.63
2019-05-10T20:37:16.853Z,2.97
2019-05-10T20:39:45.653Z,3.17
2019-05-10T20:42:14.557Z,2.70
2019-05-10T20:44:43.216Z,2.73
2019-05-10T20:47:12.198Z,3.03
2019-05-10T20:49:41.102Z,2.80
2019-05-10T20:52:09.918Z,3.10
2019-05-10T20:54:38.734Z,2.67
2019-05-10T20:57:07.619Z,2.63
2019-05-10T20:59:38.355Z,2.60
2019-05-10T21:02:07.814Z,3.30
2019-05-10T21:04:37.279Z,2.40
2019-05-10T21:07:06.132Z,3.40
2019-05-10T21:09:34.885Z,3.00
2019-05-10T21:12:04.440Z,3.10
2019-05-10T21:14:33.247Z,2.83
2019-05-10T21:17:02.054Z,3.03
2019-05-10T21:19:30.913Z,3.10
2019-05-10T21:21:59.595Z,2.80
2019-05-10T21:24:28.320Z,2.80
2019-05-10T21:26:57.215Z,3.10
2019-05-10T21:29:25.785Z,2.77
2019-05-10T21:31:54.546Z,3.03
2019-05-10T21:34:23.384Z,2.90
2019-05-10T21:36:52.186Z,2.83
2019-05-10T21:39:20.749Z,3.40
2019-05-10T21:41:49.329Z,2.93
2019-05-10T21:44:17.898Z,3.10
2019-05-10T21:46:46.461Z,3.10
2019-05-10T21:49:15.236Z,3.00
2019-05-10T21:51:43.922Z,3.53
2019-05-10T21:54:12.643Z,3.00
2019-05-10T21:56:41.201Z,3.80
2019-05-10T21:59:10.064Z,3.80
2019-05-10T22:01:38.747Z,3.80
2019-05-10T22:04:07.304Z,3.63
2019-05-10T22:06:36.203Z,3.37
2019-05-10T22:09:07.463Z,3.60
2019-05-10T22:11:36.002Z,3.40
2019-05-10T22:14:04.790Z,3.40
2019-05-10T22:16:33.366Z,3.33
2019-05-10T22:19:02.882Z,3.90
2019-05-10T22:21:32.124Z,3.53
2019-05-10T22:24:00.745Z,3.50
2019-05-10T22:26:29.393Z,3.77
2019-05-10T22:28:58.089Z,3.30
2019-05-10T22:31:26.636Z,3.40
2019-05-10T22:33:55.258Z,3.27
2019-05-10T22:36:23.855Z,3.80
2019-05-10T22:39:05.792Z,3.23
2019-05-10T22:41:22.708Z,3.43
2019-05-10T22:43:51.259Z,3.30
2019-05-10T22:46:19.818Z,3.47
2019-05-10T22:48:48.392Z,3.43
2019-05-10T22:51:36.415Z,3.47
2019-05-10T22:54:05.195Z,3.90
2019-05-10T22:56:33.757Z,3.70
2019-05-10T22:59:02.398Z,2.97
2019-05-10T23:01:30.970Z,3.63
2019-05-10T23:03:59.523Z,4.30
2019-05-10T23:06:28.099Z,4.03
2019-05-10T23:08:56.651Z,3.90
2019-05-10T23:11:25.267Z,3.63
2019-05-10T23:13:53.896Z,4.00
2019-05-10T23:16:22.459Z,3.90
2019-05-10T23:18:51.016Z,4.60
2019-05-10T23:21:19.938Z,4.10
2019-05-10T23:23:48.492Z,3.70
2019-05-10T23:26:17.043Z,3.60
2019-05-10T23:28:45.631Z,4.10
2019-05-10T23:31:14.186Z,3.90
2019-05-10T23:33:42.757Z,4.07
2019-05-10T23:36:11.331Z,4.40
2019-05-10T23:38:39.889Z,4.40
2019-05-10T23:41:08.444Z,4.47
2019-05-10T23:43:37.595Z,4.13
2019-05-10T23:46:06.152Z,4.53
2019-05-10T23:48:34.766Z,4.37
2019-05-10T23:51:03.365Z,4.27
2019-05-10T23:53:31.904Z,4.30
2019-05-10T23:56:00.489Z,4.80
2019-05-10T23:58:29.102Z,3.83
